sensor_id;sensor_type;location;lat;lon;timestamp;temperature;humidity
66920;DHT22;53831;52.090;17.026;2023-07-29T00:13:24;16.60;99.90
66920;DHT22;53831;52.090;17.026;2023-07-29T00:21:22;16.50;99.90
66920;DHT22;53831;52.090;17.026;2023-07-29T00:38:08;16.70;99.90
66920;DHT22;53831;52.090;17.026;2023-07-29T00:41:51;16.80;99.90
66920;DHT22;53831;52.090;17.026;2023-07-29T00:57:29;16.80;99.90
66920;DHT22;53831;52.090;17.026;2023-07-29T00:58:55;16.80;99.90
66920;DHT22;53831;52.090;17.026;2023-07-29T01:06:23;16.80;99.90
66920;DHT22;53831;52.090;17.026;2023-07-29T01:10:10;16.60;99.90
66920;DHT22;53831;52.090;17.026;2023-07-29T01:58:02;15.90;99.90
66920;DHT22;53831;52.090;17.026;2023-07-29T02:33:18;15.30;99.90
66920;DHT22;53831;52.090;17.026;2023-07-29T03:02:14;14.80;99.90
66920;DHT22;53831;52.090;17.026;2023-07-29T03:10:07;15.10;99.90
66920;DHT22;53831;52.090;17.026;2023-07-29T03:27:15;15.30;99.90
66920;DHT22;53831;52.090;17.026;2023-07-29T03:42:43;15.60;99.90
66920;DHT22;53831;52.090;17.026;2023-07-29T03:55:53;16.00;99.90
66920;DHT22;53831;52.090;17.026;2023-07-29T04:00:36;16.10;99.90
66920;DHT22;53831;52.090;17.026;2023-07-29T04:02:09;16.10;99.90
66920;DHT22;53831;52.090;17.026;2023-07-29T04:03:18;16.20;99.90
66920;DHT22;53831;52.090;17.026;2023-07-29T04:12:22;16.30;99.90
66920;DHT22;53831;52.090;17.026;2023-07-29T04:15:03;16.30;99.90
66920;DHT22;53831;52.090;17.026;2023-07-29T04:16:25;16.30;99.90
66920;DHT22;53831;52.090;17.026;2023-07-29T04:17:57;16.40;99.90
66920;DHT22;53831;52.090;17.026;2023-07-29T04:19:18;16.40;99.90
66920;DHT22;53831;52.090;17.026;2023-07-29T04:22:51;16.50;99.90
66920;DHT22;53831;52.090;17.026;2023-07-29T04:24:12;16.50;99.90
66920;DHT22;53831;52.090;17.026;2023-07-29T04:25:53;16.50;99.90
66920;DHT22;53831;52.090;17.026;2023-07-29T04:27:25;16.50;99.90
66920;DHT22;53831;52.090;17.026;2023-07-29T04:29:17;16.50;99.90
66920;DHT22;53831;52.090;17.026;2023-07-29T04:30:18;16.60;99.90
66920;DHT22;53831;52.090;17.026;2023-07-29T04:35:23;16.80;99.90
66920;DHT22;53831;52.090;17.026;2023-07-29T04:36:47;16.90;99.90
66920;DHT22;53831;52.090;17.026;2023-07-29T04:38:12;17.00;99.90
66920;DHT22;53831;52.090;17.026;2023-07-29T04:39:59;17.10;99.90
66920;DHT22;53831;52.090;17.026;2023-07-29T04:45:20;17.30;99.90
66920;DHT22;53831;52.090;17.026;2023-07-29T04:50:40;17.50;99.90
66920;DHT22;53831;52.090;17.026;2023-07-29T04:51:53;17.60;99.90
66920;DHT22;53831;52.090;17.026;2023-07-29T04:58:23;17.80;99.90
66920;DHT22;53831;52.090;17.026;2023-07-29T04:59:49;17.80;99.90
66920;DHT22;53831;52.090;17.026;2023-07-29T05:01:03;17.80;99.90
66920;DHT22;53831;52.090;17.026;2023-07-29T05:02:47;17.90;99.90
66920;DHT22;53831;52.090;17.026;2023-07-29T05:07:33;18.10;99.90
66920;DHT22;53831;52.090;17.026;2023-07-29T05:13:34;18.20;99.90
66920;DHT22;53831;52.090;17.026;2023-07-29T05:19:08;18.30;99.90
66920;DHT22;53831;52.090;17.026;2023-07-29T05:27:56;18.60;99.90
66920;DHT22;53831;52.090;17.026;2023-07-29T05:29:10;18.60;99.90
66920;DHT22;53831;52.090;17.026;2023-07-29T05:30:35;18.70;99.90
66920;DHT22;53831;52.090;17.026;2023-07-29T05:35:41;19.00;99.90
66920;DHT22;53831;52.090;17.026;2023-07-29T05:38:43;19.20;99.90
66920;DHT22;53831;52.090;17.026;2023-07-29T05:42:55;19.50;99.90
66920;DHT22;53831;52.090;17.026;2023-07-29T05:46:02;19.60;99.90
66920;DHT22;53831;52.090;17.026;2023-07-29T05:47:52;19.70;99.90
66920;DHT22;53831;52.090;17.026;2023-07-29T05:49:14;19.70;99.90
66920;DHT22;53831;52.090;17.026;2023-07-29T05:50:28;19.60;99.90
66920;DHT22;53831;52.090;17.026;2023-07-29T05:52:09;19.60;99.90
66920;DHT22;53831;52.090;17.026;2023-07-29T05:57:17;19.50;99.90
66920;DHT22;53831;52.090;17.026;2023-07-29T06:02:10;19.50;99.90
66920;DHT22;53831;52.090;17.026;2023-07-29T06:03:33;19.50;99.90
66920;DHT22;53831;52.090;17.026;2023-07-29T06:04:40;19.60;99.90
66920;DHT22;53831;52.090;17.026;2023-07-29T06:06:04;19.60;99.90
66920;DHT22;53831;52.090;17.026;2023-07-29T06:11:28;19.80;99.90
66920;DHT22;53831;52.090;17.026;2023-07-29T06:12:49;19.90;99.90
66920;DHT22;53831;52.090;17.026;2023-07-29T06:20:08;20.00;99.90
66920;DHT22;53831;52.090;17.026;2023-07-29T06:30:28;20.50;99.90
66920;DHT22;53831;52.090;17.026;2023-07-29T06:34:33;20.60;99.90
66920;DHT22;53831;52.090;17.026;2023-07-29T06:40:41;20.80;99.90
66920;DHT22;53831;52.090;17.026;2023-07-29T06:42:04;20.90;99.90
66920;DHT22;53831;52.090;17.026;2023-07-29T06:45:56;21.10;99.90
66920;DHT22;53831;52.090;17.026;2023-07-29T06:46:52;21.20;99.90
66920;DHT22;53831;52.090;17.026;2023-07-29T06:48:55;21.20;99.90
66920;DHT22;53831;52.090;17.026;2023-07-29T06:50:14;21.20;99.90
66920;DHT22;53831;52.090;17.026;2023-07-29T06:51:15;21.30;99.90
66920;DHT22;53831;52.090;17.026;2023-07-29T06:52:15;21.30;99.90
66920;DHT22;53831;52.090;17.026;2023-07-29T06:53:16;21.30;99.90
66920;DHT22;53831;52.090;17.026;2023-07-29T06:54:17;21.30;99.90
66920;DHT22;53831;52.090;17.026;2023-07-29T06:55:18;21.30;99.90
66920;DHT22;53831;52.090;17.026;2023-07-29T06:56:18;21.30;99.90
66920;DHT22;53831;52.090;17.026;2023-07-29T06:57:19;21.40;99.90
66920;DHT22;53831;52.090;17.026;2023-07-29T06:58:19;21.50;99.90
66920;DHT22;53831;52.090;17.026;2023-07-29T06:59:20;21.50;99.90
66920;DHT22;53831;52.090;17.026;2023-07-29T07:00:21;21.60;99.90
66920;DHT22;53831;52.090;17.026;2023-07-29T07:01:21;21.50;99.90
66920;DHT22;53831;52.090;17.026;2023-07-29T07:02:22;21.50;99.90
66920;DHT22;53831;52.090;17.026;2023-07-29T07:03:22;21.50;99.90
66920;DHT22;53831;52.090;17.026;2023-07-29T07:04:23;21.50;99.90
66920;DHT22;53831;52.090;17.026;2023-07-29T07:05:23;21.50;99.90
66920;DHT22;53831;52.090;17.026;2023-07-29T07:06:24;21.50;99.90
66920;DHT22;53831;52.090;17.026;2023-07-29T07:07:25;21.50;99.90
66920;DHT22;53831;52.090;17.026;2023-07-29T07:08:25;21.60;99.90
66920;DHT22;53831;52.090;17.026;2023-07-29T07:09:26;21.70;99.90
66920;DHT22;53831;52.090;17.026;2023-07-29T07:10:26;21.70;99.90
66920;DHT22;53831;52.090;17.026;2023-07-29T07:11:27;21.70;99.90
66920;DHT22;53831;52.090;17.026;2023-07-29T07:12:27;21.70;99.90
66920;DHT22;53831;52.090;17.026;2023-07-29T07:13:28;21.60;99.90
66920;DHT22;53831;52.090;17.026;2023-07-29T07:14:29;21.70;99.90
66920;DHT22;53831;52.090;17.026;2023-07-29T07:15:29;21.70;99.90
66920;DHT22;53831;52.090;17.026;2023-07-29T07:16:30;21.70;99.90
66920;DHT22;53831;52.090;17.026;2023-07-29T07:17:30;21.80;99.90
66920;DHT22;53831;52.090;17.026;2023-07-29T07:18:31;21.80;99.90
66920;DHT22;53831;52.090;17.026;2023-07-29T07:19:31;21.90;99.90
66920;DHT22;53831;52.090;17.026;2023-07-29T07:20:32;21.90;99.90
66920;DHT22;53831;52.090;17.026;2023-07-29T07:21:32;22.00;99.90
66920;DHT22;53831;52.090;17.026;2023-07-29T07:22:33;22.00;99.90
66920;DHT22;53831;52.090;17.026;2023-07-29T07:23:34;22.00;99.90
66920;DHT22;53831;52.090;17.026;2023-07-29T07:24:34;21.90;99.90
66920;DHT22;53831;52.090;17.026;2023-07-29T07:25:35;21.90;99.90
66920;DHT22;53831;52.090;17.026;2023-07-29T07:26:35;21.90;99.90
66920;DHT22;53831;52.090;17.026;2023-07-29T07:27:36;21.90;99.90
66920;DHT22;53831;52.090;17.026;2023-07-29T07:28:36;21.90;99.90
66920;DHT22;53831;52.090;17.026;2023-07-29T07:29:37;22.00;99.90
66920;DHT22;53831;52.090;17.026;2023-07-29T07:30:40;22.10;99.90
66920;DHT22;53831;52.090;17.026;2023-07-29T07:31:43;22.20;99.90
66920;DHT22;53831;52.090;17.026;2023-07-29T07:32:49;22.30;99.90
66920;DHT22;53831;52.090;17.026;2023-07-29T07:33:51;22.40;99.90
66920;DHT22;53831;52.090;17.026;2023-07-29T07:34:51;22.50;99.90
66920;DHT22;53831;52.090;17.026;2023-07-29T07:35:52;22.60;99.90
66920;DHT22;53831;52.090;17.026;2023-07-29T07:36:52;22.70;99.90
66920;DHT22;53831;52.090;17.026;2023-07-29T07:37:53;22.60;99.90
66920;DHT22;53831;52.090;17.026;2023-07-29T07:38:53;22.60;99.90
66920;DHT22;53831;52.090;17.026;2023-07-29T07:39:54;22.70;99.90
66920;DHT22;53831;52.090;17.026;2023-07-29T07:40:55;22.70;99.90
66920;DHT22;53831;52.090;17.026;2023-07-29T07:41:56;22.80;99.90
66920;DHT22;53831;52.090;17.026;2023-07-29T07:42:56;22.80;99.90
66920;DHT22;53831;52.090;17.026;2023-07-29T07:43:57;22.80;99.90
66920;DHT22;53831;52.090;17.026;2023-07-29T07:44:57;22.80;99.90
66920;DHT22;53831;52.090;17.026;2023-07-29T07:45:59;22.80;99.90
66920;DHT22;53831;52.090;17.026;2023-07-29T07:47:00;22.80;99.90
66920;DHT22;53831;52.090;17.026;2023-07-29T07:48:00;22.90;99.90
66920;DHT22;53831;52.090;17.026;2023-07-29T07:49:01;22.80;99.90
66920;DHT22;53831;52.090;17.026;2023-07-29T07:50:02;22.80;99.90
66920;DHT22;53831;52.090;17.026;2023-07-29T07:51:12;22.80;99.90
66920;DHT22;53831;52.090;17.026;2023-07-29T07:52:13;22.90;99.90
66920;DHT22;53831;52.090;17.026;2023-07-29T07:53:14;23.00;99.90
66920;DHT22;53831;52.090;17.026;2023-07-29T07:54:14;23.10;99.90
66920;DHT22;53831;52.090;17.026;2023-07-29T07:55:15;23.10;99.90
66920;DHT22;53831;52.090;17.026;2023-07-29T07:56:15;23.20;99.90
66920;DHT22;53831;52.090;17.026;2023-07-29T07:57:16;23.30;99.90
66920;DHT22;53831;52.090;17.026;2023-07-29T07:58:17;23.40;99.90
66920;DHT22;53831;52.090;17.026;2023-07-29T07:59:17;23.40;99.90
66920;DHT22;53831;52.090;17.026;2023-07-29T08:00:18;23.50;99.90
66920;DHT22;53831;52.090;17.026;2023-07-29T08:01:20;23.50;99.90
66920;DHT22;53831;52.090;17.026;2023-07-29T08:02:20;23.50;99.90
66920;DHT22;53831;52.090;17.026;2023-07-29T08:03:21;23.50;99.90
66920;DHT22;53831;52.090;17.026;2023-07-29T08:04:23;23.50;99.90
66920;DHT22;53831;52.090;17.026;2023-07-29T08:05:23;23.60;99.90
66920;DHT22;53831;52.090;17.026;2023-07-29T08:06:24;23.60;99.90
66920;DHT22;53831;52.090;17.026;2023-07-29T08:07:25;23.70;99.90
66920;DHT22;53831;52.090;17.026;2023-07-29T08:08:25;23.70;99.90
66920;DHT22;53831;52.090;17.026;2023-07-29T08:09:26;23.60;99.90
66920;DHT22;53831;52.090;17.026;2023-07-29T08:10:27;23.60;99.90
66920;DHT22;53831;52.090;17.026;2023-07-29T08:11:27;23.60;99.90
66920;DHT22;53831;52.090;17.026;2023-07-29T08:12:28;23.60;99.90
66920;DHT22;53831;52.090;17.026;2023-07-29T08:13:28;23.50;99.90
66920;DHT22;53831;52.090;17.026;2023-07-29T08:14:29;23.50;99.90
66920;DHT22;53831;52.090;17.026;2023-07-29T08:15:30;23.50;99.90
66920;DHT22;53831;52.090;17.026;2023-07-29T08:16:30;23.50;99.90
66920;DHT22;53831;52.090;17.026;2023-07-29T08:17:31;23.50;99.90
66920;DHT22;53831;52.090;17.026;2023-07-29T08:18:31;23.50;99.90
66920;DHT22;53831;52.090;17.026;2023-07-29T08:19:32;23.50;99.90
66920;DHT22;53831;52.090;17.026;2023-07-29T08:20:32;23.50;99.90
66920;DHT22;53831;52.090;17.026;2023-07-29T08:21:33;23.50;99.90
66920;DHT22;53831;52.090;17.026;2023-07-29T08:22:33;23.50;99.90
66920;DHT22;53831;52.090;17.026;2023-07-29T08:23:34;23.50;99.90
66920;DHT22;53831;52.090;17.026;2023-07-29T08:24:35;23.40;99.90
66920;DHT22;53831;52.090;17.026;2023-07-29T08:25:36;23.40;99.90
66920;DHT22;53831;52.090;17.026;2023-07-29T08:26:37;23.50;99.90
66920;DHT22;53831;52.090;17.026;2023-07-29T08:27:37;23.50;99.90
66920;DHT22;53831;52.090;17.026;2023-07-29T08:28:38;23.40;99.90
66920;DHT22;53831;52.090;17.026;2023-07-29T08:29:39;23.50;99.90
66920;DHT22;53831;52.090;17.026;2023-07-29T08:30:39;23.50;99.90
66920;DHT22;53831;52.090;17.026;2023-07-29T08:31:40;23.50;99.90
66920;DHT22;53831;52.090;17.026;2023-07-29T08:32:40;23.70;99.90
66920;DHT22;53831;52.090;17.026;2023-07-29T08:33:41;23.80;99.90
66920;DHT22;53831;52.090;17.026;2023-07-29T08:34:41;23.80;99.90
66920;DHT22;53831;52.090;17.026;2023-07-29T08:35:42;23.90;99.90
66920;DHT22;53831;52.090;17.026;2023-07-29T08:36:42;24.00;99.90
66920;DHT22;53831;52.090;17.026;2023-07-29T08:37:43;24.00;99.90
66920;DHT22;53831;52.090;17.026;2023-07-29T08:38:44;24.10;99.90
66920;DHT22;53831;52.090;17.026;2023-07-29T08:39:44;24.10;99.90
66920;DHT22;53831;52.090;17.026;2023-07-29T08:40:45;24.10;99.90
66920;DHT22;53831;52.090;17.026;2023-07-29T08:42:52;24.20;99.90
66920;DHT22;53831;52.090;17.026;2023-07-29T08:43:56;24.20;99.90
66920;DHT22;53831;52.090;17.026;2023-07-29T08:45:06;24.20;99.90
66920;DHT22;53831;52.090;17.026;2023-07-29T08:46:08;24.30;99.90
66920;DHT22;53831;52.090;17.026;2023-07-29T08:47:10;24.40;99.90
66920;DHT22;53831;52.090;17.026;2023-07-29T08:48:11;24.40;99.90
66920;DHT22;53831;52.090;17.026;2023-07-29T08:49:12;24.50;99.90
66920;DHT22;53831;52.090;17.026;2023-07-29T08:50:19;24.50;99.90
66920;DHT22;53831;52.090;17.026;2023-07-29T08:51:20;24.50;99.90
66920;DHT22;53831;52.090;17.026;2023-07-29T08:52:21;24.60;99.90
66920;DHT22;53831;52.090;17.026;2023-07-29T08:53:22;24.70;99.90
66920;DHT22;53831;52.090;17.026;2023-07-29T08:54:23;24.70;99.90
66920;DHT22;53831;52.090;17.026;2023-07-29T08:55:24;24.60;99.90
66920;DHT22;53831;52.090;17.026;2023-07-29T08:56:25;24.70;99.90
66920;DHT22;53831;52.090;17.026;2023-07-29T08:57:27;24.70;99.90
66920;DHT22;53831;52.090;17.026;2023-07-29T08:58:28;24.70;99.90
66920;DHT22;53831;52.090;17.026;2023-07-29T08:59:29;24.70;99.90
66920;DHT22;53831;52.090;17.026;2023-07-29T09:00:29;24.80;99.90
66920;DHT22;53831;52.090;17.026;2023-07-29T09:01:30;24.80;99.90
66920;DHT22;53831;52.090;17.026;2023-07-29T09:02:31;24.80;99.90
66920;DHT22;53831;52.090;17.026;2023-07-29T09:03:31;24.90;99.90
66920;DHT22;53831;52.090;17.026;2023-07-29T09:04:32;24.80;99.90
66920;DHT22;53831;52.090;17.026;2023-07-29T09:05:33;24.80;99.90
66920;DHT22;53831;52.090;17.026;2023-07-29T09:06:35;24.90;99.90
66920;DHT22;53831;52.090;17.026;2023-07-29T09:07:36;25.00;99.90
66920;DHT22;53831;52.090;17.026;2023-07-29T09:08:37;25.00;99.90
66920;DHT22;53831;52.090;17.026;2023-07-29T09:09:37;25.00;99.90
66920;DHT22;53831;52.090;17.026;2023-07-29T09:10:38;25.00;99.90
66920;DHT22;53831;52.090;17.026;2023-07-29T09:11:38;25.00;99.90
66920;DHT22;53831;52.090;17.026;2023-07-29T09:12:39;25.10;99.90
66920;DHT22;53831;52.090;17.026;2023-07-29T09:13:40;25.20;99.90
66920;DHT22;53831;52.090;17.026;2023-07-29T09:14:42;25.20;99.90
66920;DHT22;53831;52.090;17.026;2023-07-29T09:15:43;25.30;99.90
66920;DHT22;53831;52.090;17.026;2023-07-29T09:16:43;25.40;99.90
66920;DHT22;53831;52.090;17.026;2023-07-29T09:17:44;25.40;99.90
66920;DHT22;53831;52.090;17.026;2023-07-29T09:18:47;25.40;99.90
66920;DHT22;53831;52.090;17.026;2023-07-29T09:19:48;25.50;99.90
66920;DHT22;53831;52.090;17.026;2023-07-29T09:20:49;25.40;99.90
66920;DHT22;53831;52.090;17.026;2023-07-29T09:21:50;25.40;99.90
66920;DHT22;53831;52.090;17.026;2023-07-29T09:22:51;25.40;99.90
66920;DHT22;53831;52.090;17.026;2023-07-29T09:23:51;25.40;99.90
66920;DHT22;53831;52.090;17.026;2023-07-29T09:24:52;25.40;99.90
66920;DHT22;53831;52.090;17.026;2023-07-29T09:26:02;25.50;99.90
66920;DHT22;53831;52.090;17.026;2023-07-29T09:27:03;25.50;99.90
66920;DHT22;53831;52.090;17.026;2023-07-29T09:28:08;25.40;99.90
66920;DHT22;53831;52.090;17.026;2023-07-29T09:29:08;25.40;99.90
66920;DHT22;53831;52.090;17.026;2023-07-29T09:30:15;25.50;99.90
66920;DHT22;53831;52.090;17.026;2023-07-29T09:31:20;25.60;99.90
66920;DHT22;53831;52.090;17.026;2023-07-29T09:32:21;25.70;99.90
66920;DHT22;53831;52.090;17.026;2023-07-29T09:33:25;25.80;99.90
66920;DHT22;53831;52.090;17.026;2023-07-29T09:34:25;26.00;99.90
66920;DHT22;53831;52.090;17.026;2023-07-29T09:35:29;26.20;99.90
66920;DHT22;53831;52.090;17.026;2023-07-29T09:36:31;26.40;99.90
66920;DHT22;53831;52.090;17.026;2023-07-29T09:37:32;26.60;99.90
66920;DHT22;53831;52.090;17.026;2023-07-29T09:38:33;26.60;99.90
66920;DHT22;53831;52.090;17.026;2023-07-29T09:39:36;26.60;99.90
66920;DHT22;53831;52.090;17.026;2023-07-29T09:40:37;26.80;99.90
66920;DHT22;53831;52.090;17.026;2023-07-29T09:41:37;27.00;99.90
66920;DHT22;53831;52.090;17.026;2023-07-29T09:42:38;27.10;99.90
66920;DHT22;53831;52.090;17.026;2023-07-29T09:43:38;27.00;99.90
66920;DHT22;53831;52.090;17.026;2023-07-29T09:44:39;27.20;99.90
66920;DHT22;53831;52.090;17.026;2023-07-29T09:45:40;27.30;99.90
66920;DHT22;53831;52.090;17.026;2023-07-29T09:46:40;27.00;99.90
66920;DHT22;53831;52.090;17.026;2023-07-29T09:47:41;27.00;99.90
66920;DHT22;53831;52.090;17.026;2023-07-29T09:48:41;27.20;99.90
66920;DHT22;53831;52.090;17.026;2023-07-29T09:49:43;27.20;99.90
66920;DHT22;53831;52.090;17.026;2023-07-29T09:50:43;27.10;99.90
66920;DHT22;53831;52.090;17.026;2023-07-29T09:51:44;26.90;99.90
66920;DHT22;53831;52.090;17.026;2023-07-29T09:52:44;27.20;99.90
66920;DHT22;53831;52.090;17.026;2023-07-29T09:53:46;27.40;99.90
66920;DHT22;53831;52.090;17.026;2023-07-29T09:54:46;27.40;99.90
66920;DHT22;53831;52.090;17.026;2023-07-29T09:55:47;27.30;99.90
66920;DHT22;53831;52.090;17.026;2023-07-29T09:56:51;27.40;99.90
66920;DHT22;53831;52.090;17.026;2023-07-29T09:57:58;27.40;99.90
66920;DHT22;53831;52.090;17.026;2023-07-29T09:59:01;27.30;99.90
66920;DHT22;53831;52.090;17.026;2023-07-29T10:00:02;27.40;99.90
66920;DHT22;53831;52.090;17.026;2023-07-29T10:01:06;27.40;99.90
66920;DHT22;53831;52.090;17.026;2023-07-29T10:02:13;27.50;99.90
66920;DHT22;53831;52.090;17.026;2023-07-29T10:03:13;27.50;99.90
66920;DHT22;53831;52.090;17.026;2023-07-29T10:04:14;27.50;99.90
66920;DHT22;53831;52.090;17.026;2023-07-29T10:05:15;27.60;99.90
66920;DHT22;53831;52.090;17.026;2023-07-29T10:06:15;27.60;99.90
66920;DHT22;53831;52.090;17.026;2023-07-29T10:07:17;27.70;99.90
66920;DHT22;53831;52.090;17.026;2023-07-29T10:08:19;27.60;99.90
66920;DHT22;53831;52.090;17.026;2023-07-29T10:09:20;27.70;99.90
66920;DHT22;53831;52.090;17.026;2023-07-29T10:10:21;27.40;99.90
66920;DHT22;53831;52.090;17.026;2023-07-29T10:11:22;27.40;99.90
66920;DHT22;53831;52.090;17.026;2023-07-29T10:12:22;27.40;99.90
66920;DHT22;53831;52.090;17.026;2023-07-29T10:13:24;27.40;99.90
66920;DHT22;53831;52.090;17.026;2023-07-29T10:14:27;27.50;99.90
66920;DHT22;53831;52.090;17.026;2023-07-29T10:15:28;27.60;99.90
66920;DHT22;53831;52.090;17.026;2023-07-29T10:16:29;27.70;99.90
66920;DHT22;53831;52.090;17.026;2023-07-29T10:17:30;27.80;99.90
66920;DHT22;53831;52.090;17.026;2023-07-29T10:18:32;27.70;99.90
66920;DHT22;53831;52.090;17.026;2023-07-29T10:19:33;27.80;99.90
66920;DHT22;53831;52.090;17.026;2023-07-29T10:20:34;28.00;99.90
66920;DHT22;53831;52.090;17.026;2023-07-29T10:21:36;28.20;99.90
66920;DHT22;53831;52.090;17.026;2023-07-29T10:22:39;28.30;99.90
66920;DHT22;53831;52.090;17.026;2023-07-29T10:23:42;28.60;99.90
66920;DHT22;53831;52.090;17.026;2023-07-29T10:24:43;28.60;99.90
66920;DHT22;53831;52.090;17.026;2023-07-29T10:25:50;28.70;99.90
66920;DHT22;53831;52.090;17.026;2023-07-29T10:26:52;28.70;99.90
66920;DHT22;53831;52.090;17.026;2023-07-29T10:27:56;28.80;99.90
66920;DHT22;53831;52.090;17.026;2023-07-29T10:28:57;28.90;99.90
66920;DHT22;53831;52.090;17.026;2023-07-29T10:30:05;28.90;99.90
66920;DHT22;53831;52.090;17.026;2023-07-29T10:31:06;28.70;99.90
66920;DHT22;53831;52.090;17.026;2023-07-29T10:32:07;28.90;99.90
66920;DHT22;53831;52.090;17.026;2023-07-29T10:33:08;28.90;99.90
66920;DHT22;53831;52.090;17.026;2023-07-29T10:34:10;28.60;99.90
66920;DHT22;53831;52.090;17.026;2023-07-29T10:35:12;28.60;99.90
66920;DHT22;53831;52.090;17.026;2023-07-29T10:36:13;28.50;99.90
66920;DHT22;53831;52.090;17.026;2023-07-29T10:37:14;28.50;99.90
66920;DHT22;53831;52.090;17.026;2023-07-29T10:38:15;28.50;99.90
66920;DHT22;53831;52.090;17.026;2023-07-29T10:39:16;28.60;99.90
66920;DHT22;53831;52.090;17.026;2023-07-29T10:40:17;28.70;99.90
66920;DHT22;53831;52.090;17.026;2023-07-29T10:41:18;28.70;99.90
66920;DHT22;53831;52.090;17.026;2023-07-29T10:42:18;28.60;99.90
66920;DHT22;53831;52.090;17.026;2023-07-29T10:43:23;28.70;99.90
66920;DHT22;53831;52.090;17.026;2023-07-29T10:45:40;28.40;99.90
66920;DHT22;53831;52.090;17.026;2023-07-29T10:46:41;28.40;99.90
66920;DHT22;53831;52.090;17.026;2023-07-29T10:47:43;28.40;99.90
66920;DHT22;53831;52.090;17.026;2023-07-29T10:48:51;28.30;99.90
66920;DHT22;53831;52.090;17.026;2023-07-29T10:49:56;28.10;99.90
66920;DHT22;53831;52.090;17.026;2023-07-29T10:52:27;27.90;99.90
66920;DHT22;53831;52.090;17.026;2023-07-29T10:53:29;27.60;99.90
66920;DHT22;53831;52.090;17.026;2023-07-29T10:54:30;27.50;99.90
66920;DHT22;53831;52.090;17.026;2023-07-29T10:55:43;27.70;99.90
66920;DHT22;53831;52.090;17.026;2023-07-29T10:56:48;27.70;99.90
66920;DHT22;53831;52.090;17.026;2023-07-29T10:57:48;27.80;99.90
66920;DHT22;53831;52.090;17.026;2023-07-29T10:58:49;27.80;99.90
66920;DHT22;53831;52.090;17.026;2023-07-29T10:59:54;27.80;99.90
66920;DHT22;53831;52.090;17.026;2023-07-29T11:00:56;27.80;99.90
66920;DHT22;53831;52.090;17.026;2023-07-29T11:01:57;28.00;99.90
66920;DHT22;53831;52.090;17.026;2023-07-29T11:02:59;28.10;99.90
66920;DHT22;53831;52.090;17.026;2023-07-29T11:04:21;28.30;99.90
66920;DHT22;53831;52.090;17.026;2023-07-29T11:05:24;28.50;99.90
66920;DHT22;53831;52.090;17.026;2023-07-29T11:06:24;28.70;99.90
66920;DHT22;53831;52.090;17.026;2023-07-29T11:07:25;28.70;99.90
66920;DHT22;53831;52.090;17.026;2023-07-29T11:09:51;28.60;99.90
66920;DHT22;53831;52.090;17.026;2023-07-29T11:12:03;28.80;99.90
66920;DHT22;53831;52.090;17.026;2023-07-29T11:13:05;28.80;99.90
66920;DHT22;53831;52.090;17.026;2023-07-29T11:14:07;28.70;99.90
66920;DHT22;53831;52.090;17.026;2023-07-29T11:16:11;28.60;99.90
66920;DHT22;53831;52.090;17.026;2023-07-29T11:17:16;28.80;99.90
66920;DHT22;53831;52.090;17.026;2023-07-29T11:18:17;28.90;99.90
66920;DHT22;53831;52.090;17.026;2023-07-29T11:19:17;28.90;99.90
66920;DHT22;53831;52.090;17.026;2023-07-29T11:20:26;29.00;99.90
66920;DHT22;53831;52.090;17.026;2023-07-29T11:21:27;29.00;99.90
66920;DHT22;53831;52.090;17.026;2023-07-29T11:22:28;29.10;99.90
66920;DHT22;53831;52.090;17.026;2023-07-29T11:24:30;29.20;99.90
66920;DHT22;53831;52.090;17.026;2023-07-29T11:25:30;29.40;99.90
66920;DHT22;53831;52.090;17.026;2023-07-29T11:26:31;29.50;99.90
66920;DHT22;53831;52.090;17.026;2023-07-29T11:27:32;29.50;99.90
66920;DHT22;53831;52.090;17.026;2023-07-29T11:28:37;29.70;99.90
66920;DHT22;53831;52.090;17.026;2023-07-29T11:29:38;29.90;99.90
66920;DHT22;53831;52.090;17.026;2023-07-29T11:30:39;30.00;99.90
66920;DHT22;53831;52.090;17.026;2023-07-29T11:31:40;30.20;99.90
66920;DHT22;53831;52.090;17.026;2023-07-29T11:32:41;30.20;99.90
66920;DHT22;53831;52.090;17.026;2023-07-29T11:33:42;30.40;99.90
66920;DHT22;53831;52.090;17.026;2023-07-29T11:34:42;30.30;99.90
66920;DHT22;53831;52.090;17.026;2023-07-29T11:35:43;30.50;99.90
66920;DHT22;53831;52.090;17.026;2023-07-29T11:36:45;30.70;99.90
66920;DHT22;53831;52.090;17.026;2023-07-29T11:37:49;30.60;99.90
66920;DHT22;53831;52.090;17.026;2023-07-29T11:38:50;30.30;99.90
66920;DHT22;53831;52.090;17.026;2023-07-29T11:39:50;30.40;99.90
66920;DHT22;53831;52.090;17.026;2023-07-29T11:41:00;30.50;99.90
66920;DHT22;53831;52.090;17.026;2023-07-29T11:42:03;30.30;99.90
66920;DHT22;53831;52.090;17.026;2023-07-29T11:43:04;30.40;99.90
66920;DHT22;53831;52.090;17.026;2023-07-29T11:44:04;30.50;99.90
66920;DHT22;53831;52.090;17.026;2023-07-29T11:45:09;30.50;99.90
66920;DHT22;53831;52.090;17.026;2023-07-29T11:46:11;30.50;99.90
66920;DHT22;53831;52.090;17.026;2023-07-29T11:47:12;30.50;99.90
66920;DHT22;53831;52.090;17.026;2023-07-29T11:48:13;30.40;99.90
66920;DHT22;53831;52.090;17.026;2023-07-29T11:49:13;30.40;99.90
66920;DHT22;53831;52.090;17.026;2023-07-29T11:50:14;30.30;99.90
66920;DHT22;53831;52.090;17.026;2023-07-29T11:51:15;30.40;99.90
66920;DHT22;53831;52.090;17.026;2023-07-29T11:52:17;30.30;99.90
66920;DHT22;53831;52.090;17.026;2023-07-29T11:53:19;30.20;99.90
66920;DHT22;53831;52.090;17.026;2023-07-29T11:54:20;30.20;99.90
66920;DHT22;53831;52.090;17.026;2023-07-29T11:55:21;30.30;99.90
66920;DHT22;53831;52.090;17.026;2023-07-29T11:56:22;30.30;99.90
66920;DHT22;53831;52.090;17.026;2023-07-29T11:57:23;30.40;99.90
66920;DHT22;53831;52.090;17.026;2023-07-29T11:58:23;30.10;99.90
66920;DHT22;53831;52.090;17.026;2023-07-29T11:59:24;30.10;99.90
66920;DHT22;53831;52.090;17.026;2023-07-29T12:00:25;30.10;99.90
66920;DHT22;53831;52.090;17.026;2023-07-29T12:01:25;30.00;99.90
66920;DHT22;53831;52.090;17.026;2023-07-29T12:02:26;30.10;99.90
66920;DHT22;53831;52.090;17.026;2023-07-29T12:03:27;30.30;99.90
66920;DHT22;53831;52.090;17.026;2023-07-29T12:04:27;30.30;99.90
66920;DHT22;53831;52.090;17.026;2023-07-29T12:05:28;30.00;99.90
66920;DHT22;53831;52.090;17.026;2023-07-29T12:06:29;30.00;99.90
66920;DHT22;53831;52.090;17.026;2023-07-29T12:07:31;30.20;99.90
66920;DHT22;53831;52.090;17.026;2023-07-29T12:08:33;30.20;99.90
66920;DHT22;53831;52.090;17.026;2023-07-29T12:09:34;30.30;99.90